Accueil
METAR-TAF:

METAR-TAF

Aéroports :

Cranfield, Angleterre

latitude: 52-04N, longitude: 000-37W, altitude: 111 m

Observation

Le bulletin a été fait il y a 5 heures et 27 minutes, à 14:50 UTC
Vent 16 kt de sud-ouest
Température 19°C
Humidité 49%
Pression 1014 hPa
Visibilité 10 km ou plus
Nuages fragmentés à une hauteur de 4400 ft

METAR: EGTC 041450Z 23016KT 9999 BKN044 19/08 Q1014

Heure: 21:17 (20:17 UTC)

Prévision

Le bulletin a été fait il y a 6 heures et 18 minutes, à 13:59 UTC
Prévision valable du 04 à 15 UTC au 04 à 18 UTC
Vent 15 kt de sud-ouest
Visibilité 10 km ou plus
Quelques nuages à une hauteur de 4500 ft

TAF: EGTC 041359Z 0415/0418 22015KT 9999 FEW045

Observations et prévisions météorologiques de plus de 4000 aéroports (messages METAR et TAF).

Les stations disponibles sont représentées par des disques jaunes et rouges sur la carte.

Passer la souris dessus pour voir le nom de la station.

Cliquer dessus pour voir les observations et prévisions météorologiques.

Pour changer de carte: cliquez sur les boutons verts avec une croix noire pour zoomer, sur le bouton vert avec un tiret pour effectuer un zoom arrière, ou sur les flèches vertes pour les cartes adjacentes.


METAR-TAF: